Time;durP1;ratioP1;P1;durP2;ratioP2;P2;SDS_P1;SDS_P2;PMS_P1;PMS_P2;Temp;Humidity;BMP_temperature;BMP_pressure;BME280_temperature;BME280_humidity;BME280_pressure;Samples;Min_cycle;Max_cycle;Signal;HPM_P1;HPM_P2
2022/08/05 00:00:24;;;;;;;2.85;1.27;;;18.00;99.90;;;;;;4969499;28;20089;-75
2022/08/05 00:02:51;;;;;;;4.22;2.10;;;18.00;99.90;;;;;;4975942;28;20459;-69
2022/08/05 00:05:19;;;;;;;6.32;1.80;;;18.00;99.90;;;;;;4981063;28;20658;-74
2022/08/05 00:07:47;;;;;;;5.43;2.00;;;18.10;99.90;;;;;;4979315;28;20027;-75
2022/08/05 00:10:14;;;;;;;13.73;2.22;;;18.10;99.90;;;;;;4980740;28;20030;-73
2022/08/05 00:12:41;;;;;;;4.43;1.60;;;18.20;99.90;;;;;;4992779;28;20083;-73
2022/08/05 00:15:09;;;;;;;5.55;1.25;;;18.20;99.90;;;;;;4980050;28;20031;-74
2022/08/05 00:17:36;;;;;;;3.92;1.75;;;18.30;99.90;;;;;;4980243;28;20476;-75
2022/08/05 00:20:04;;;;;;;6.28;1.58;;;18.30;99.90;;;;;;4979145;28;20109;-75
2022/08/05 00:22:31;;;;;;;5.60;1.60;;;18.40;99.90;;;;;;4980607;28;20061;-75
2022/08/05 00:24:58;;;;;;;5.18;2.15;;;18.50;99.90;;;;;;4998693;28;20504;-76
2022/08/05 00:27:27;;;;;;;2.67;1.20;;;18.60;99.90;;;;;;4980605;28;20102;-74
2022/08/05 00:29:54;;;;;;;6.07;1.33;;;18.70;99.90;;;;;;4979212;28;20027;-75
2022/08/05 00:32:21;;;;;;;6.10;1.00;;;18.80;99.90;;;;;;4979323;28;20030;-77
2022/08/05 00:34:49;;;;;;;2.90;1.38;;;18.90;99.90;;;;;;4979631;28;20495;-78
2022/08/05 00:37:16;;;;;;;2.38;1.23;;;19.00;99.90;;;;;;4969136;28;20022;-78
2022/08/05 00:39:44;;;;;;;2.60;0.95;;;19.00;99.90;;;;;;4995058;28;20042;-73
2022/08/05 00:42:11;;;;;;;4.05;1.00;;;19.00;99.90;;;;;;4979168;28;20026;-77
2022/08/05 00:44:38;;;;;;;2.80;1.10;;;19.00;99.90;;;;;;4979758;28;20030;-75
2022/08/05 00:47:06;;;;;;;2.85;1.15;;;19.00;99.90;;;;;;4979338;28;20487;-73
2022/08/05 00:49:33;;;;;;;3.45;1.20;;;19.10;99.90;;;;;;4981177;28;20029;-72
2022/08/05 00:52:00;;;;;;;3.35;1.00;;;19.10;99.90;;;;;;4995201;28;20483;-78
2022/08/05 00:54:28;;;;;;;6.35;1.15;;;19.10;99.90;;;;;;4980345;28;20037;-76
2022/08/05 00:56:55;;;;;;;3.10;1.00;;;19.20;99.90;;;;;;4978338;28;20042;-75
2022/08/05 00:59:22;;;;;;;2.75;1.15;;;19.30;99.90;;;;;;4981334;28;20026;-73
2022/08/05 01:01:50;;;;;;;3.35;1.10;;;19.30;99.90;;;;;;4991753;28;20471;-75
2022/08/05 01:04:17;;;;;;;3.15;1.42;;;19.40;99.90;;;;;;4978356;28;20049;-75
2022/08/05 01:06:46;;;;;;;3.83;1.20;;;19.40;99.90;;;;;;4979714;28;20387;-75
2022/08/05 01:09:14;;;;;;;2.88;0.85;;;19.50;99.90;;;;;;4978593;28;20018;-72
2022/08/05 01:11:43;;;;;;;1.38;0.80;;;19.50;99.90;;;;;;4982158;28;20022;-75
2022/08/05 01:14:36;;;;;;;2.65;1.02;;;19.50;99.90;;;;;;4998257;28;20024;-75
2022/08/05 01:17:08;;;;;;;3.00;1.27;;;19.60;99.90;;;;;;4978871;28;20030;-72
2022/08/05 01:19:51;;;;;;;4.95;1.20;;;19.60;99.90;;;;;;4979633;28;20076;-71
2022/08/05 01:22:36;;;;;;;;;;;19.70;99.90;;;;;;4978663;28;20029;-75
2022/08/05 01:25:23;;;;;;;3.13;1.67;;;19.70;99.90;;;;;;4986795;28;19909;-76
2022/08/05 01:28:15;;;;;;;2.75;0.88;;;19.80;99.90;;;;;;4982071;28;20034;-75
2022/08/05 01:30:52;;;;;;;2.65;0.85;;;20.00;99.90;;;;;;4977983;28;20109;-74
2022/08/05 01:33:23;;;;;;;3.50;1.00;;;20.00;99.90;;;;;;4978061;28;20048;-77
2022/08/05 01:35:53;;;;;;;6.05;1.02;;;20.10;99.40;;;;;;4981539;28;20014;-74
2022/08/05 01:38:22;;;;;;;3.05;1.20;;;20.10;98.70;;;;;;4960543;28;20045;-76
2022/08/05 01:40:50;;;;;;;1.60;1.00;;;20.20;98.60;;;;;;4978976;28;20034;-76
2022/08/05 01:43:18;;;;;;;1.88;0.65;;;20.30;97.90;;;;;;4976688;28;20106;-75
2022/08/05 01:45:46;;;;;;;2.38;0.98;;;20.40;97.40;;;;;;4979683;28;20092;-76
2022/08/05 01:48:15;;;;;;;4.30;1.15;;;20.60;96.90;;;;;;4984611;28;20025;-75
2022/08/05 01:50:45;;;;;;;3.03;0.85;;;20.80;97.20;;;;;;4995626;28;20042;-75
2022/08/05 01:53:16;;;;;;;3.60;0.93;;;20.90;96.10;;;;;;4978382;28;20022;-76
2022/08/05 01:55:46;;;;;;;2.90;0.82;;;20.90;95.90;;;;;;4980024;28;20034;-74
2022/08/05 01:58:15;;;;;;;3.55;1.13;;;20.90;95.80;;;;;;4978574;28;20043;-75
2022/08/05 02:00:51;;;;;;;;;;;21.00;96.00;;;;;;4988566;28;20081;-75
2022/08/05 02:03:40;;;;;;;1.10;0.77;;;21.10;95.10;;;;;;4979635;28;19914;-73
2022/08/05 02:06:09;;;;;;;2.33;0.70;;;21.30;95.00;;;;;;4992500;28;20029;-76
2022/08/05 02:08:37;;;;;;;2.15;0.90;;;21.50;94.00;;;;;;4978851;28;20109;-74
2022/08/05 02:11:12;;;;;;;5.43;0.70;;;21.60;93.70;;;;;;4977926;28;20018;-76
2022/08/05 02:13:58;;;;;;;2.58;1.30;;;21.80;93.20;;;;;;4993814;28;20021;-76
2022/08/05 02:16:44;;;;;;;2.97;1.40;;;21.90;93.50;;;;;;4981204;28;20398;-76
2022/08/05 02:19:19;;;;;;;3.28;1.05;;;21.90;92.80;;;;;;4978580;28;20035;-74
2022/08/05 02:21:59;;;;;;;2.35;0.85;;;21.90;92.10;;;;;;4979775;28;20037;-73
2022/08/05 02:24:35;;;;;;;2.30;0.82;;;22.00;92.00;;;;;;4980890;28;20715;-76
2022/08/05 02:27:05;;;;;;;1.38;0.70;;;22.10;92.10;;;;;;4979175;28;20562;-73
2022/08/05 02:29:35;;;;;;;1.60;0.60;;;22.20;91.00;;;;;;4977374;28;20030;-72
2022/08/05 02:32:07;;;;;;;4.15;0.70;;;22.30;91.00;;;;;;4977491;28;20094;-72
2022/08/05 02:34:35;;;;;;;1.67;0.65;;;22.40;90.90;;;;;;4979251;28;20034;-71
2022/08/05 02:37:07;;;;;;;2.22;0.70;;;22.60;91.10;;;;;;4988257;28;20017;-69
2022/08/05 02:39:37;;;;;;;1.65;0.70;;;22.80;90.40;;;;;;4982509;28;20045;-72
2022/08/05 02:42:06;;;;;;;1.95;0.70;;;23.00;87.70;;;;;;4981965;28;20038;-69
2022/08/05 02:44:36;;;;;;;3.78;0.90;;;23.20;86.10;;;;;;4984784;28;20114;-73
2022/08/05 02:47:10;;;;;;;2.55;0.70;;;23.40;84.40;;;;;;4985674;28;20033;-70
2022/08/05 02:49:43;;;;;;;3.33;0.80;;;23.50;84.10;;;;;;4986696;28;20031;-70
2022/08/05 02:52:19;;;;;;;1.88;0.70;;;23.80;84.40;;;;;;4997638;28;20244;-73
2022/08/05 02:54:49;;;;;;;2.75;0.57;;;24.20;82.20;;;;;;4983796;28;20480;-72
2022/08/05 02:57:19;;;;;;;2.83;0.63;;;24.30;79.50;;;;;;4985271;28;20086;-73
2022/08/05 02:59:49;;;;;;;2.22;0.68;;;24.40;78.50;;;;;;4986354;28;20041;-71
2022/08/05 03:02:20;;;;;;;4.50;1.17;;;24.60;79.80;;;;;;5001365;28;20077;-71
2022/08/05 03:04:50;;;;;;;3.70;0.70;;;24.80;78.20;;;;;;5005866;28;20053;-73
2022/08/05 03:07:18;;;;;;;2.38;0.68;;;24.90;78.40;;;;;;4997347;28;20097;-78
2022/08/05 03:09:47;;;;;;;2.90;1.02;;;25.30;77.90;;;;;;4987077;28;20094;-72
2022/08/05 03:12:31;;;;;;;1.95;0.70;;;25.30;76.90;;;;;;4985226;28;20026;-73
2022/08/05 03:14:58;;;;;;;1.65;0.70;;;25.30;76.90;;;;;;5007719;28;20029;-70
2022/08/05 03:17:26;;;;;;;0.98;0.50;;;25.60;77.10;;;;;;5007068;28;20513;-70
2022/08/05 03:19:55;;;;;;;2.75;0.75;;;25.80;75.30;;;;;;4988527;28;20038;-71
2022/08/05 03:22:22;;;;;;;2.60;0.98;;;25.70;74.90;;;;;;4983298;28;20034;-74
2022/08/05 03:24:51;;;;;;;2.13;0.60;;;25.50;74.60;;;;;;4986343;28;20038;-70
2022/08/05 03:27:20;;;;;;;3.20;0.50;;;25.60;75.40;;;;;;4995489;28;20050;-72
2022/08/05 03:29:47;;;;;;;3.58;0.90;;;26.30;74.90;;;;;;4984277;28;20057;-73
2022/08/05 03:32:15;;;;;;;1.55;0.73;;;27.00;72.40;;;;;;4984445;28;20022;-72
2022/08/05 03:34:44;;;;;;;1.73;0.40;;;27.80;70.40;;;;;;4984536;28;20105;-74
2022/08/05 03:37:12;;;;;;;3.65;0.50;;;28.10;69.70;;;;;;4986301;28;20133;-72
2022/08/05 03:39:50;;;;;;;2.03;0.60;;;28.30;67.40;;;;;;4981191;28;20084;-73
2022/08/05 03:42:18;;;;;;;2.38;0.50;;;28.20;68.00;;;;;;4983307;28;20224;-72
2022/08/05 03:44:45;;;;;;;1.58;0.50;;;28.30;67.80;;;;;;4987527;28;20033;-71
2022/08/05 03:47:12;;;;;;;2.47;0.60;;;28.70;67.10;;;;;;4991678;28;20023;-71
2022/08/05 03:49:39;;;;;;;2.35;0.45;;;28.90;64.50;;;;;;4982881;28;20050;-75
2022/08/05 03:52:11;;;;;;;1.98;0.50;;;28.80;63.90;;;;;;4986621;28;20037;-72
2022/08/05 03:54:48;;;;;;;;;;;28.70;64.30;;;;;;4979824;28;20031;-73
2022/08/05 03:57:21;;;;;;;1.90;0.50;;;28.90;62.50;;;;;;4985079;28;20292;-70
2022/08/05 03:59:59;;;;;;;1.60;0.50;;;28.70;62.00;;;;;;4992459;28;20039;-71
2022/08/05 04:02:30;;;;;;;2.00;0.40;;;28.50;63.30;;;;;;4979846;28;20023;-72
2022/08/05 04:05:02;;;;;;;1.00;0.30;;;28.40;62.80;;;;;;4980742;28;20026;-74
2022/08/05 04:07:30;;;;;;;2.50;0.60;;;28.40;63.10;;;;;;4980736;28;20030;-70
2022/08/05 04:09:58;;;;;;;1.90;0.50;;;28.60;63.30;;;;;;4980691;28;20037;-73
2022/08/05 04:12:25;;;;;;;0.95;0.40;;;29.00;64.00;;;;;;4979762;28;20041;-75
2022/08/05 04:14:53;;;;;;;1.55;0.50;;;29.60;61.80;;;;;;4979938;28;20725;-72
2022/08/05 04:17:21;;;;;;;0.80;0.40;;;29.70;62.10;;;;;;4980457;28;20493;-71
2022/08/05 04:19:48;;;;;;;2.25;0.40;;;29.50;60.70;;;;;;4975620;28;20080;-76
2022/08/05 04:22:19;;;;;;;1.02;0.25;;;29.10;60.00;;;;;;4982772;28;20064;-76
2022/08/05 04:24:47;;;;;;;1.23;0.40;;;28.50;58.70;;;;;;4980375;28;20472;-77
2022/08/05 04:27:15;;;;;;;2.78;0.45;;;27.50;60.20;;;;;;4980844;28;20471;-75
2022/08/05 04:29:42;;;;;;;2.08;0.38;;;27.40;61.30;;;;;;4980871;28;20022;-72
2022/08/05 04:32:10;;;;;;;0.82;0.30;;;27.50;58.60;;;;;;4980316;28;20495;-74
2022/08/05 04:34:37;;;;;;;2.17;0.45;;;27.50;56.60;;;;;;4983878;28;20411;-72
2022/08/05 04:37:05;;;;;;;2.53;0.70;;;27.50;57.20;;;;;;4979884;28;20023;-71
2022/08/05 04:39:33;;;;;;;1.25;0.50;;;27.40;56.80;;;;;;4979461;28;20092;-75
2022/08/05 04:42:00;;;;;;;1.67;0.47;;;27.20;56.80;;;;;;4979136;28;20414;-74
2022/08/05 04:44:28;;;;;;;3.72;0.43;;;26.90;56.60;;;;;;4978800;28;20034;-75
2022/08/05 04:46:56;;;;;;;1.30;0.40;;;26.80;56.00;;;;;;4991732;28;20433;-73
2022/08/05 04:49:28;;;;;;;4.60;0.60;;;26.70;56.80;;;;;;4983920;28;20426;-70
2022/08/05 04:51:56;;;;;;;1.95;0.60;;;26.80;56.50;;;;;;4979032;28;20491;-73
2022/08/05 04:54:25;;;;;;;3.08;0.50;;;26.60;55.90;;;;;;4979719;28;20565;-72
2022/08/05 04:56:53;;;;;;;2.60;0.50;;;26.30;56.80;;;;;;4978063;28;20045;-70
2022/08/05 04:59:21;;;;;;;2.75;0.30;;;26.00;57.10;;;;;;4992558;28;20483;-73
2022/08/05 05:01:49;;;;;;;2.05;0.45;;;25.70;57.10;;;;;;4977951;28;20041;-76
2022/08/05 05:04:17;;;;;;;2.47;0.75;;;25.50;57.10;;;;;;4979835;28;20575;-70
2022/08/05 05:06:44;;;;;;;3.13;0.40;;;25.30;57.30;;;;;;4979594;28;20024;-71
2022/08/05 05:09:12;;;;;;;2.92;0.40;;;25.10;57.50;;;;;;4978834;28;20026;-71
2022/08/05 05:11:39;;;;;;;2.03;0.57;;;24.90;57.70;;;;;;5011898;28;20028;-68
2022/08/05 05:14:07;;;;;;;2.70;0.50;;;24.80;58.40;;;;;;4978336;28;20030;-71
2022/08/05 05:16:35;;;;;;;2.35;0.50;;;24.80;58.60;;;;;;4977731;28;20034;-71
2022/08/05 05:19:02;;;;;;;2.42;0.52;;;25.00;58.70;;;;;;4976897;28;20019;-73
2022/08/05 05:21:29;;;;;;;2.35;0.30;;;25.20;57.30;;;;;;4978948;28;20030;-77
2022/08/05 05:23:56;;;;;;;5.43;1.30;;;25.30;56.70;;;;;;4979710;28;20033;-72
2022/08/05 05:26:24;;;;;;;1.42;0.47;;;25.30;56.90;;;;;;4977109;28;20127;-71
2022/08/05 05:28:51;;;;;;;2.28;0.40;;;25.50;56.90;;;;;;4978570;28;20045;-73
2022/08/05 05:31:18;;;;;;;1.20;0.32;;;25.90;57.20;;;;;;4979712;28;20101;-72
2022/08/05 05:33:45;;;;;;;2.05;0.40;;;26.00;55.40;;;;;;4979441;28;20033;-72
2022/08/05 05:36:13;;;;;;;2.17;0.30;;;25.80;56.10;;;;;;4998286;28;20109;-70
2022/08/05 05:38:40;;;;;;;2.78;0.40;;;25.70;55.70;;;;;;4997676;28;20068;-75
2022/08/05 05:41:07;;;;;;;3.00;0.38;;;25.50;55.90;;;;;;4979403;28;20759;-73
2022/08/05 05:43:35;;;;;;;2.35;0.52;;;25.40;55.40;;;;;;4977816;28;20026;-71
2022/08/05 05:46:02;;;;;;;3.90;0.75;;;25.30;57.20;;;;;;4980348;28;20119;-72
2022/08/05 05:48:29;;;;;;;1.73;0.50;;;25.20;56.30;;;;;;4997382;28;20017;-72
2022/08/05 05:50:56;;;;;;;3.10;0.68;;;25.00;56.30;;;;;;4979701;28;20089;-75
2022/08/05 05:53:24;;;;;;;0.90;0.38;;;24.90;57.10;;;;;;4977890;28;20322;-73
2022/08/05 05:55:51;;;;;;;1.35;0.50;;;24.90;57.60;;;;;;4975329;28;20424;-74
2022/08/05 05:58:18;;;;;;;2.78;0.60;;;24.90;58.10;;;;;;4980796;28;20046;-74
2022/08/05 06:00:45;;;;;;;3.65;0.50;;;25.00;56.90;;;;;;4981782;28;20112;-71
2022/08/05 06:03:13;;;;;;;1.85;0.40;;;25.10;57.40;;;;;;4975727;28;20022;-72
2022/08/05 06:05:40;;;;;;;3.28;0.60;;;25.20;57.30;;;;;;4977589;28;20023;-69
2022/08/05 06:08:09;;;;;;;1.45;0.55;;;25.50;56.70;;;;;;4974836;28;20049;-72
2022/08/05 06:10:36;;;;;;;2.20;0.40;;;26.00;55.60;;;;;;4981178;28;20026;-74
2022/08/05 06:13:04;;;;;;;1.02;0.40;;;26.40;53.50;;;;;;4979458;28;20031;-77
2022/08/05 06:15:31;;;;;;;3.95;0.40;;;26.80;53.70;;;;;;4976368;28;20419;-72
2022/08/05 06:17:58;;;;;;;1.23;0.40;;;27.10;52.40;;;;;;4976481;28;20094;-73
2022/08/05 06:20:26;;;;;;;1.30;0.40;;;27.00;52.00;;;;;;4977276;28;20162;-72
2022/08/05 06:22:53;;;;;;;1.58;0.30;;;27.00;51.80;;;;;;4983824;28;20018;-74
2022/08/05 06:25:20;;;;;;;1.55;0.30;;;26.90;52.40;;;;;;4974316;28;20031;-71
2022/08/05 06:27:47;;;;;;;1.80;0.35;;;26.80;52.50;;;;;;4975728;28;20018;-70
2022/08/05 06:30:15;;;;;;;2.22;0.40;;;26.80;52.60;;;;;;4975159;28;20109;-71
2022/08/05 06:32:43;;;;;;;1.35;0.50;;;26.40;53.10;;;;;;4977319;28;20018;-72
2022/08/05 06:35:10;;;;;;;2.70;0.40;;;25.90;53.50;;;;;;4977265;28;20022;-73
2022/08/05 06:37:37;;;;;;;2.47;0.55;;;25.10;54.20;;;;;;4959214;28;20026;-73
2022/08/05 06:40:05;;;;;;;2.00;0.35;;;24.60;54.90;;;;;;4973502;28;20045;-72
2022/08/05 06:42:33;;;;;;;2.30;0.70;;;24.10;55.80;;;;;;4977279;28;20063;-73
2022/08/05 06:45:00;;;;;;;1.55;0.50;;;23.80;56.50;;;;;;4977082;28;20027;-73
2022/08/05 06:47:27;;;;;;;1.77;0.60;;;23.40;56.80;;;;;;4976397;28;20026;-72
2022/08/05 06:49:55;;;;;;;1.75;0.55;;;23.20;57.40;;;;;;4978927;28;20061;-72
2022/08/05 06:52:22;;;;;;;3.28;1.00;;;22.90;58.40;;;;;;4976351;28;20084;-72
2022/08/05 06:54:49;;;;;;;1.33;0.50;;;22.70;58.40;;;;;;4975937;28;20026;-72
2022/08/05 06:57:17;;;;;;;2.05;0.70;;;22.50;58.40;;;;;;4976814;28;20407;-73
2022/08/05 06:59:44;;;;;;;3.10;0.57;;;22.40;58.70;;;;;;4976406;28;20030;-74
2022/08/05 07:02:12;;;;;;;2.58;0.88;;;22.20;59.60;;;;;;4996360;28;20173;-73
2022/08/05 07:04:39;;;;;;;1.45;0.60;;;22.00;60.00;;;;;;4996266;28;20014;-73
2022/08/05 07:07:06;;;;;;;1.98;0.68;;;21.90;60.30;;;;;;4981083;28;20065;-73
2022/08/05 07:09:34;;;;;;;1.95;0.60;;;21.70;60.50;;;;;;4991151;28;20030;-73
2022/08/05 07:12:01;;;;;;;3.42;0.50;;;21.60;60.70;;;;;;4977123;28;20501;-73
2022/08/05 07:17:14;;;;;;;2.15;0.57;;;21.40;61.40;;;;;;4975034;28;20124;-69
2022/08/05 07:19:41;;;;;;;1.52;0.63;;;21.40;61.80;;;;;;4977079;28;20030;-72
2022/08/05 07:22:09;;;;;;;2.53;0.90;;;21.20;61.70;;;;;;4974001;28;20803;-72
2022/08/05 07:24:36;;;;;;;6.72;1.33;;;21.20;62.30;;;;;;4982449;28;20030;-71
2022/08/05 07:27:04;;;;;;;3.20;0.95;;;21.10;62.50;;;;;;4979240;28;20031;-70
2022/08/05 07:29:31;;;;;;;2.20;0.80;;;20.90;63.10;;;;;;4976240;28;20037;-74
2022/08/05 07:31:58;;;;;;;3.63;1.38;;;20.90;63.20;;;;;;4979514;28;20032;-73
2022/08/05 07:34:26;;;;;;;4.28;1.33;;;20.90;63.40;;;;;;4980647;28;20535;-74
2022/08/05 07:36:53;;;;;;;7.63;6.93;;;20.70;63.80;;;;;;4986523;28;20025;-74
2022/08/05 07:39:20;;;;;;;1.67;0.93;;;20.70;64.30;;;;;;4980385;28;20041;-78
2022/08/05 07:41:47;;;;;;;6.85;6.05;;;20.70;64.30;;;;;;4987672;28;20038;-78
2022/08/05 07:44:15;;;;;;;4.40;2.72;;;20.50;64.70;;;;;;4993396;28;20863;-74
2022/08/05 07:46:42;;;;;;;5.75;1.92;;;20.40;64.90;;;;;;4981757;28;20054;-80
2022/08/05 07:49:09;;;;;;;4.80;2.53;;;20.40;65.20;;;;;;4979815;28;20026;-72
2022/08/05 07:51:38;;;;;;;4.07;1.98;;;20.30;65.70;;;;;;4980838;28;20034;-77
2022/08/05 07:54:06;;;;;;;3.80;1.35;;;20.20;66.30;;;;;;4980406;28;20446;-79
2022/08/05 07:56:33;;;;;;;2.83;1.20;;;20.10;66.50;;;;;;4980131;28;20095;-79
2022/08/05 07:59:00;;;;;;;1.95;1.48;;;20.00;66.90;;;;;;4980039;28;20044;-81
2022/08/05 08:01:28;;;;;;;4.25;1.00;;;19.90;67.20;;;;;;4980457;28;20043;-74
2022/08/05 08:03:55;;;;;;;2.00;0.88;;;19.90;67.90;;;;;;4982041;28;20051;-76
2022/08/05 08:06:22;;;;;;;4.03;1.33;;;19.80;67.80;;;;;;4979621;28;20386;-73
2022/08/05 08:08:49;;;;;;;4.13;1.33;;;19.70;67.80;;;;;;4981158;28;20030;-73
2022/08/05 08:11:17;;;;;;;5.55;1.20;;;19.60;68.30;;;;;;4979262;28;20037;-74
2022/08/05 08:13:44;;;;;;;5.00;1.40;;;19.60;68.90;;;;;;4980465;28;20113;-80
2022/08/05 08:16:11;;;;;;;4.88;1.15;;;19.50;69.80;;;;;;4979895;28;20030;-75
2022/08/05 08:18:39;;;;;;;5.25;1.17;;;19.40;69.70;;;;;;4980400;28;20025;-79
2022/08/05 08:21:06;;;;;;;4.18;1.45;;;19.40;69.90;;;;;;4980396;28;20034;-77
2022/08/05 08:23:34;;;;;;;5.50;1.35;;;19.20;70.30;;;;;;4980217;28;20019;-79
2022/08/05 08:26:01;;;;;;;4.80;1.20;;;19.20;70.60;;;;;;4980442;28;20034;-74
2022/08/05 08:28:29;;;;;;;5.18;1.40;;;19.10;70.70;;;;;;4979927;28;20061;-79
2022/08/05 08:30:57;;;;;;;4.20;1.65;;;19.10;71.10;;;;;;4981440;28;20032;-81
2022/08/05 08:33:24;;;;;;;5.60;1.67;;;19.00;71.10;;;;;;4978300;28;20487;-72
2022/08/05 08:35:52;;;;;;;4.47;1.33;;;18.90;71.10;;;;;;4980683;28;20030;-74
2022/08/05 08:38:19;;;;;;;4.40;2.17;;;18.80;70.90;;;;;;4993344;28;20485;-74
2022/08/05 08:40:48;;;;;;;4.30;1.67;;;18.80;71.00;;;;;;4979886;28;20038;-80
2022/08/05 08:43:17;;;;;;;5.18;1.98;;;18.80;70.70;;;;;;4979187;28;20053;-76
2022/08/05 08:45:46;;;;;;;5.30;2.08;;;18.80;70.20;;;;;;4979961;28;20023;-77
2022/08/05 08:48:17;;;;;;;3.60;1.75;;;18.80;69.90;;;;;;4978522;28;20023;-73
2022/08/05 08:50:46;;;;;;;5.40;2.08;;;18.80;69.90;;;;;;4979519;28;20022;-72
2022/08/05 08:53:16;;;;;;;3.97;1.48;;;18.80;69.40;;;;;;4979376;28;20022;-73
2022/08/05 08:55:44;;;;;;;4.75;2.00;;;18.80;68.90;;;;;;4979288;28;20032;-72
2022/08/05 08:58:14;;;;;;;4.60;1.50;;;18.80;68.50;;;;;;4977961;28;20051;-73
2022/08/05 09:00:43;;;;;;;5.70;1.80;;;18.80;68.30;;;;;;4979440;28;20040;-73
2022/08/05 09:03:13;;;;;;;3.33;1.23;;;18.80;68.00;;;;;;4979928;28;20034;-77
2022/08/05 09:05:41;;;;;;;3.10;1.20;;;18.70;67.70;;;;;;4978704;28;20125;-73
2022/08/05 09:08:08;;;;;;;4.43;1.40;;;18.80;68.10;;;;;;4979276;28;20026;-79
2022/08/05 09:10:35;;;;;;;3.53;1.58;;;18.70;68.10;;;;;;4979552;28;20022;-72
2022/08/05 09:13:03;;;;;;;4.88;2.38;;;18.70;67.80;;;;;;4981152;28;20026;-76
2022/08/05 09:15:30;;;;;;;2.70;1.38;;;18.70;67.70;;;;;;4977294;28;20448;-79
2022/08/05 09:17:58;;;;;;;2.47;1.20;;;18.70;67.50;;;;;;4979304;28;20429;-73
2022/08/05 09:20:25;;;;;;;3.65;1.10;;;18.70;66.50;;;;;;4978133;28;20030;-70
2022/08/05 09:23:14;;;;;;;4.50;1.10;;;18.70;66.40;;;;;;4979421;28;20368;-71
2022/08/05 09:25:44;;;;;;;3.08;1.08;;;18.80;66.10;;;;;;4978280;28;20037;-77
2022/08/05 09:28:23;;;;;;;4.20;1.02;;;18.80;66.10;;;;;;4978641;28;20015;-74
2022/08/05 09:31:19;;;;;;;1.10;0.75;;;18.70;65.70;;;;;;4979229;28;20085;-74
2022/08/05 09:33:57;;;;;;;4.30;0.90;;;18.70;65.60;;;;;;4979940;28;20030;-72
2022/08/05 09:36:37;;;;;;;2.95;0.70;;;18.70;65.50;;;;;;4978150;28;20029;-80
2022/08/05 09:39:08;;;;;;;2.63;0.80;;;18.60;65.20;;;;;;4979810;28;20014;-77
2022/08/05 09:41:53;;;;;;;2.22;1.08;;;18.70;65.10;;;;;;4976847;28;20035;-72
2022/08/05 09:44:42;;;;;;;3.05;0.90;;;18.60;64.80;;;;;;4959366;28;20391;-71
2022/08/05 09:47:12;;;;;;;3.05;0.63;;;18.60;64.60;;;;;;4976122;28;20042;-75
2022/08/05 09:49:48;;;;;;;3.60;0.68;;;18.60;64.60;;;;;;4976679;28;20030;-78
2022/08/05 09:52:30;;;;;;;1.77;0.65;;;18.60;64.40;;;;;;4979231;28;20065;-75
2022/08/05 09:55:05;;;;;;;6.20;2.20;;;18.60;64.60;;;;;;4978855;28;20093;-72
2022/08/05 09:57:38;;;;;;;3.63;0.90;;;18.50;64.60;;;;;;4977679;28;20218;-75
2022/08/05 10:00:14;;;;;;;3.00;1.60;;;18.50;64.60;;;;;;4978999;28;20037;-72
2022/08/05 10:02:54;;;;;;;2.58;1.10;;;18.50;64.80;;;;;;4977340;28;20018;-72
2022/08/05 10:05:26;;;;;;;2.47;0.60;;;18.40;65.10;;;;;;4978964;28;20022;-78
2022/08/05 10:08:02;;;;;;;3.15;1.02;;;18.40;64.80;;;;;;4978281;28;20041;-72
2022/08/05 10:10:38;;;;;;;2.85;1.00;;;18.40;65.20;;;;;;4994002;28;20414;-75
2022/08/05 10:13:06;;;;;;;2.53;1.00;;;18.30;65.50;;;;;;4979259;28;20097;-71
2022/08/05 10:15:36;;;;;;;2.85;0.85;;;18.30;65.90;;;;;;4978643;28;20022;-69
2022/08/05 10:18:18;;;;;;;2.45;0.70;;;18.20;65.70;;;;;;4979272;28;20018;-73
2022/08/05 10:20:55;;;;;;;3.45;1.20;;;18.20;66.10;;;;;;4977513;28;20081;-79
2022/08/05 10:23:25;;;;;;;2.30;1.00;;;18.10;66.30;;;;;;4977882;28;20092;-72
2022/08/05 10:25:55;;;;;;;1.42;0.60;;;18.10;66.40;;;;;;4972724;28;20033;-74
2022/08/05 10:28:23;;;;;;;2.10;0.80;;;18.10;66.80;;;;;;4980035;28;20626;-80
2022/08/05 10:30:52;;;;;;;3.08;0.85;;;18.00;66.90;;;;;;4978372;28;20054;-77
2022/08/05 10:33:24;;;;;;;2.67;0.90;;;18.00;66.90;;;;;;4978558;28;20077;-75
2022/08/05 10:35:53;;;;;;;1.92;0.82;;;18.00;67.00;;;;;;4974782;28;20026;-73
2022/08/05 10:38:24;;;;;;;1.40;0.88;;;18.00;67.20;;;;;;4993637;28;20031;-74
2022/08/05 10:40:51;;;;;;;3.42;0.90;;;17.90;67.90;;;;;;4969615;28;20117;-73
2022/08/05 10:43:48;;;;;;;2.88;1.15;;;17.90;68.20;;;;;;4979537;28;20014;-76
2022/08/05 10:46:20;;;;;;;4.85;1.10;;;17.90;68.20;;;;;;4976219;28;20546;-74
2022/08/05 10:48:50;;;;;;;5.13;1.40;;;17.80;68.30;;;;;;4976075;28;20026;-76
2022/08/05 10:51:19;;;;;;;1.33;0.77;;;17.70;68.40;;;;;;4975660;28;20916;-71
2022/08/05 10:54:02;;;;;;;3.25;0.80;;;17.70;68.80;;;;;;4990950;28;20062;-79
2022/08/05 10:56:35;;;;;;;;;;;17.70;68.90;;;;;;4974786;28;20057;-72
2022/08/05 10:59:06;;;;;;;4.80;1.27;;;17.60;69.00;;;;;;4976178;28;19921;-75
2022/08/05 11:01:46;;;;;;;5.82;3.13;;;17.60;69.20;;;;;;4978333;28;20081;-72
2022/08/05 11:04:17;;;;;;;7.25;3.28;;;17.50;69.50;;;;;;4973023;28;20019;-78
2022/08/05 11:07:10;;;;;;;5.70;2.50;;;17.40;69.90;;;;;;4981377;28;20057;-78
2022/08/05 11:09:48;;;;;;;4.50;2.85;;;17.40;70.30;;;;;;4982320;28;20034;-78
2022/08/05 11:12:37;;;;;;;5.43;2.60;;;17.40;70.20;;;;;;4978947;28;20393;-76
2022/08/05 11:15:21;;;;;;;5.68;1.90;;;17.30;70.50;;;;;;4979240;28;20041;-73
2022/08/05 11:17:53;;;;;;;1.85;0.88;;;17.30;70.70;;;;;;4979591;28;20037;-75
2022/08/05 11:20:39;;;;;;;3.00;1.35;;;17.20;70.90;;;;;;4980940;28;20049;-75
2022/08/05 11:23:28;;;;;;;2.95;1.05;;;17.20;70.90;;;;;;4978250;28;20084;-72
2022/08/05 11:26:23;;;;;;;1.92;0.75;;;17.10;71.90;;;;;;4980578;28;20102;-77
2022/08/05 11:28:52;;;;;;;2.58;1.02;;;17.00;72.00;;;;;;4979978;28;20050;-74
2022/08/05 11:31:31;;;;;;;2.70;0.93;;;17.00;72.10;;;;;;4980510;28;20278;-78
2022/08/05 11:34:04;;;;;;;1.52;0.60;;;16.90;72.50;;;;;;4974896;28;20030;-77
2022/08/05 11:36:50;;;;;;;3.22;0.77;;;16.90;72.50;;;;;;4981794;28;20023;-78
2022/08/05 11:39:50;;;;;;;1.70;0.85;;;16.90;72.60;;;;;;4980448;28;20025;-76
2022/08/05 11:42:24;;;;;;;2.55;0.90;;;16.80;72.80;;;;;;4981221;28;20038;-73
2022/08/05 11:44:53;;;;;;;2.30;0.90;;;16.80;72.40;;;;;;4974004;28;20019;-77
2022/08/05 11:47:25;;;;;;;2.17;0.77;;;16.80;72.50;;;;;;4980607;28;20026;-74
2022/08/05 11:50:01;;;;;;;1.10;0.57;;;16.80;72.70;;;;;;4979656;28;20022;-81
2022/08/05 11:52:29;;;;;;;1.35;0.70;;;16.80;73.00;;;;;;4981311;28;20097;-75
2022/08/05 11:54:58;;;;;;;3.42;1.30;;;16.80;73.00;;;;;;4979937;28;20053;-78
2022/08/05 11:57:30;;;;;;;4.03;0.90;;;16.80;73.50;;;;;;4979977;28;20735;-78
2022/08/05 11:59:58;;;;;;;1.95;0.52;;;16.80;73.40;;;;;;4980142;28;20610;-79
2022/08/05 12:02:30;;;;;;;2.20;0.75;;;16.70;73.60;;;;;;4981744;28;20158;-79
2022/08/05 12:04:58;;;;;;;2.57;0.93;;;16.70;73.90;;;;;;4979371;28;20380;-77
2022/08/05 12:07:25;;;;;;;1.67;0.70;;;16.70;74.00;;;;;;4980889;28;20037;-79
2022/08/05 12:09:54;;;;;;;2.08;1.00;;;16.60;74.00;;;;;;4980991;28;20022;-76
2022/08/05 12:12:23;;;;;;;3.03;0.80;;;16.60;74.30;;;;;;4980352;28;20030;-72
2022/08/05 12:14:50;;;;;;;2.15;0.70;;;16.60;74.40;;;;;;4961742;28;20101;-72
2022/08/05 12:17:19;;;;;;;1.33;0.85;;;16.60;74.20;;;;;;4976160;28;20128;-71
2022/08/05 12:19:51;;;;;;;2.25;0.82;;;16.60;74.50;;;;;;4980761;28;20046;-77
2022/08/05 12:22:21;;;;;;;2.95;0.63;;;16.50;74.40;;;;;;4980566;28;20065;-74
2022/08/05 12:24:54;;;;;;;2.63;0.80;;;16.60;74.90;;;;;;4980242;28;20023;-70
2022/08/05 12:27:28;;;;;;;1.92;1.00;;;16.50;74.90;;;;;;4980060;28;20030;-71
2022/08/05 12:30:06;;;;;;;2.47;0.70;;;16.40;74.90;;;;;;4981132;28;20030;-77
2022/08/05 12:32:35;;;;;;;3.50;0.70;;;16.50;75.00;;;;;;4979357;28;20026;-76
2022/08/05 12:35:08;;;;;;;1.60;0.68;;;16.50;75.40;;;;;;4978349;28;20112;-78
2022/08/05 12:37:35;;;;;;;1.67;0.60;;;16.40;75.40;;;;;;4964560;28;20084;-74
2022/08/05 12:40:03;;;;;;;3.42;0.85;;;16.40;75.50;;;;;;4978385;28;20057;-73
2022/08/05 12:42:31;;;;;;;1.65;0.80;;;16.30;75.60;;;;;;4979817;28;20058;-74
2022/08/05 12:45:09;;;;;;;2.05;0.80;;;16.30;75.80;;;;;;4978822;28;20030;-74
2022/08/05 12:47:37;;;;;;;2.70;0.95;;;16.30;75.80;;;;;;4968949;28;20022;-77
2022/08/05 12:50:15;;;;;;;1.30;0.68;;;16.20;75.60;;;;;;4978583;28;20027;-75
2022/08/05 12:53:00;;;;;;;1.35;0.70;;;16.20;76.10;;;;;;4980246;28;20030;-83
2022/08/05 12:55:31;;;;;;;1.35;0.60;;;16.10;76.10;;;;;;4980462;28;20033;-75
2022/08/05 12:58:00;;;;;;;1.50;0.80;;;16.10;76.50;;;;;;4980336;28;20046;-80
2022/08/05 13:00:32;;;;;;;3.17;1.00;;;16.10;76.50;;;;;;4979978;28;20060;-73
2022/08/05 13:03:01;;;;;;;3.45;1.90;;;16.00;76.80;;;;;;4979217;28;20018;-74
2022/08/05 13:05:28;;;;;;;3.05;1.45;;;16.00;77.40;;;;;;4979666;28;20096;-74
2022/08/05 13:07:57;;;;;;;2.33;1.20;;;15.90;77.20;;;;;;4978542;28;20037;-79